sensor_id;sensor_type;location;lat;lon;timestamp;P1;durP1;ratioP1;P2;durP2;ratioP2
19024;SDS011;9645;51.448;6.260;2023-06-04T00:02:17;28.67;;;2.40;;
19024;SDS011;9645;51.448;6.260;2023-06-04T00:04:44;4.97;;;2.10;;
19024;SDS011;9645;51.448;6.260;2023-06-04T00:07:11;3.87;;;1.93;;
19024;SDS011;9645;51.448;6.260;2023-06-04T00:09:38;2.97;;;1.93;;
19024;SDS011;9645;51.448;6.260;2023-06-04T00:12:05;6.60;;;1.80;;
19024;SDS011;9645;51.448;6.260;2023-06-04T00:14:34;14.20;;;2.13;;
19024;SDS011;9645;51.448;6.260;2023-06-04T00:17:01;4.53;;;1.90;;
19024;SDS011;9645;51.448;6.260;2023-06-04T00:19:30;3.77;;;2.17;;
19024;SDS011;9645;51.448;6.260;2023-06-04T00:21:58;2.23;;;1.90;;
19024;SDS011;9645;51.448;6.260;2023-06-04T00:24:25;3.90;;;1.60;;
19024;SDS011;9645;51.448;6.260;2023-06-04T00:26:59;5.00;;;1.70;;
19024;SDS011;9645;51.448;6.260;2023-06-04T00:29:31;7.43;;;1.83;;
19024;SDS011;9645;51.448;6.260;2023-06-04T00:31:58;2.50;;;1.97;;
19024;SDS011;9645;51.448;6.260;2023-06-04T00:34:25;5.20;;;1.80;;
19024;SDS011;9645;51.448;6.260;2023-06-04T00:36:54;3.40;;;1.60;;
19024;SDS011;9645;51.448;6.260;2023-06-04T00:39:21;2.63;;;1.83;;
19024;SDS011;9645;51.448;6.260;2023-06-04T00:41:48;4.63;;;1.90;;
19024;SDS011;9645;51.448;6.260;2023-06-04T00:44:15;2.40;;;1.57;;
19024;SDS011;9645;51.448;6.260;2023-06-04T00:46:42;3.83;;;2.30;;
19024;SDS011;9645;51.448;6.260;2023-06-04T00:49:12;1.60;;;1.50;;
19024;SDS011;9645;51.448;6.260;2023-06-04T00:51:40;4.20;;;1.60;;
19024;SDS011;9645;51.448;6.260;2023-06-04T00:54:08;1.95;;;1.75;;
19024;SDS011;9645;51.448;6.260;2023-06-04T00:56:35;6.30;;;2.00;;
19024;SDS011;9645;51.448;6.260;2023-06-04T00:59:04;1.93;;;1.73;;
19024;SDS011;9645;51.448;6.260;2023-06-04T01:01:34;4.70;;;2.60;;
19024;SDS011;9645;51.448;6.260;2023-06-04T01:04:12;2.80;;;2.00;;
19024;SDS011;9645;51.448;6.260;2023-06-04T01:06:45;4.45;;;1.58;;
19024;SDS011;9645;51.448;6.260;2023-06-04T01:09:17;2.00;;;1.80;;
19024;SDS011;9645;51.448;6.260;2023-06-04T01:11:45;3.88;;;1.88;;
19024;SDS011;9645;51.448;6.260;2023-06-04T01:14:12;4.67;;;2.10;;
19024;SDS011;9645;51.448;6.260;2023-06-04T01:16:42;1.35;;;1.25;;
19024;SDS011;9645;51.448;6.260;2023-06-04T01:19:17;6.50;;;2.27;;
19024;SDS011;9645;51.448;6.260;2023-06-04T01:22:03;3.30;;;2.13;;
19024;SDS011;9645;51.448;6.260;2023-06-04T01:24:42;2.70;;;1.80;;
19024;SDS011;9645;51.448;6.260;2023-06-04T01:27:16;1.77;;;1.67;;
19024;SDS011;9645;51.448;6.260;2023-06-04T01:29:44;2.35;;;1.95;;
19024;SDS011;9645;51.448;6.260;2023-06-04T01:32:14;2.63;;;1.90;;
19024;SDS011;9645;51.448;6.260;2023-06-04T01:34:44;2.42;;;1.98;;
19024;SDS011;9645;51.448;6.260;2023-06-04T01:37:12;2.30;;;2.10;;
19024;SDS011;9645;51.448;6.260;2023-06-04T01:39:42;2.35;;;2.15;;
19024;SDS011;9645;51.448;6.260;2023-06-04T01:42:09;2.00;;;1.90;;
19024;SDS011;9645;51.448;6.260;2023-06-04T01:44:36;5.80;;;2.35;;
19024;SDS011;9645;51.448;6.260;2023-06-04T01:47:03;4.32;;;2.20;;
19024;SDS011;9645;51.448;6.260;2023-06-04T01:49:30;2.30;;;2.10;;
19024;SDS011;9645;51.448;6.260;2023-06-04T01:51:57;8.30;;;2.05;;
19024;SDS011;9645;51.448;6.260;2023-06-04T01:54:24;3.35;;;2.20;;
19024;SDS011;9645;51.448;6.260;2023-06-04T01:56:53;2.80;;;2.20;;
19024;SDS011;9645;51.448;6.260;2023-06-04T01:59:20;8.48;;;2.28;;
19024;SDS011;9645;51.448;6.260;2023-06-04T02:01:47;6.40;;;2.60;;
19024;SDS011;9645;51.448;6.260;2023-06-04T02:04:14;1.80;;;1.70;;
19024;SDS011;9645;51.448;6.260;2023-06-04T02:06:41;7.18;;;2.40;;
19024;SDS011;9645;51.448;6.260;2023-06-04T02:09:08;3.05;;;2.38;;
19024;SDS011;9645;51.448;6.260;2023-06-04T02:11:35;6.55;;;3.65;;
19024;SDS011;9645;51.448;6.260;2023-06-04T02:14:04;2.75;;;2.00;;
19024;SDS011;9645;51.448;6.260;2023-06-04T02:16:31;3.45;;;2.30;;
19024;SDS011;9645;51.448;6.260;2023-06-04T02:18:58;6.47;;;2.03;;
19024;SDS011;9645;51.448;6.260;2023-06-04T02:21:25;3.05;;;2.28;;
19024;SDS011;9645;51.448;6.260;2023-06-04T02:23:53;5.05;;;2.70;;
19024;SDS011;9645;51.448;6.260;2023-06-04T02:26:19;2.30;;;2.10;;
19024;SDS011;9645;51.448;6.260;2023-06-04T02:28:48;17.17;;;2.58;;
19024;SDS011;9645;51.448;6.260;2023-06-04T02:31:17;3.75;;;2.33;;
19024;SDS011;9645;51.448;6.260;2023-06-04T02:33:44;7.07;;;2.35;;
19024;SDS011;9645;51.448;6.260;2023-06-04T02:36:11;10.30;;;3.00;;
19024;SDS011;9645;51.448;6.260;2023-06-04T02:38:38;5.10;;;2.50;;
19024;SDS011;9645;51.448;6.260;2023-06-04T02:41:05;6.18;;;3.20;;
19024;SDS011;9645;51.448;6.260;2023-06-04T02:43:36;6.85;;;2.38;;
19024;SDS011;9645;51.448;6.260;2023-06-04T02:46:03;2.60;;;2.08;;
19024;SDS011;9645;51.448;6.260;2023-06-04T02:48:32;4.60;;;2.60;;
19024;SDS011;9645;51.448;6.260;2023-06-04T02:51:01;3.78;;;2.40;;
19024;SDS011;9645;51.448;6.260;2023-06-04T02:53:28;2.75;;;2.38;;
19024;SDS011;9645;51.448;6.260;2023-06-04T02:55:55;11.32;;;2.60;;
19024;SDS011;9645;51.448;6.260;2023-06-04T02:58:24;3.72;;;2.40;;
19024;SDS011;9645;51.448;6.260;2023-06-04T03:00:51;4.72;;;3.00;;
19024;SDS011;9645;51.448;6.260;2023-06-04T03:03:19;5.80;;;3.25;;
19024;SDS011;9645;51.448;6.260;2023-06-04T03:05:47;4.13;;;2.63;;
19024;SDS011;9645;51.448;6.260;2023-06-04T03:08:14;4.22;;;3.08;;
19024;SDS011;9645;51.448;6.260;2023-06-04T03:10:41;2.78;;;2.35;;
19024;SDS011;9645;51.448;6.260;2023-06-04T03:13:08;5.68;;;2.90;;
19024;SDS011;9645;51.448;6.260;2023-06-04T03:15:35;3.65;;;2.85;;
19024;SDS011;9645;51.448;6.260;2023-06-04T03:18:04;7.60;;;3.05;;
19024;SDS011;9645;51.448;6.260;2023-06-04T03:20:31;4.90;;;2.85;;
19024;SDS011;9645;51.448;6.260;2023-06-04T03:23:04;3.78;;;2.63;;
19024;SDS011;9645;51.448;6.260;2023-06-04T03:25:31;7.05;;;3.00;;
19024;SDS011;9645;51.448;6.260;2023-06-04T03:27:58;6.40;;;2.75;;
19024;SDS011;9645;51.448;6.260;2023-06-04T03:30:25;3.75;;;2.05;;
19024;SDS011;9645;51.448;6.260;2023-06-04T03:32:52;13.40;;;2.95;;
19024;SDS011;9645;51.448;6.260;2023-06-04T03:35:20;5.88;;;2.53;;
19024;SDS011;9645;51.448;6.260;2023-06-04T03:37:46;7.13;;;2.50;;
19024;SDS011;9645;51.448;6.260;2023-06-04T03:40:15;4.03;;;2.60;;
19024;SDS011;9645;51.448;6.260;2023-06-04T03:42:42;9.00;;;2.88;;
19024;SDS011;9645;51.448;6.260;2023-06-04T03:45:09;4.35;;;2.50;;
19024;SDS011;9645;51.448;6.260;2023-06-04T03:47:37;5.35;;;2.42;;
19024;SDS011;9645;51.448;6.260;2023-06-04T03:50:05;4.53;;;2.65;;
19024;SDS011;9645;51.448;6.260;2023-06-04T03:52:32;3.30;;;2.55;;
19024;SDS011;9645;51.448;6.260;2023-06-04T03:54:59;7.50;;;3.22;;
19024;SDS011;9645;51.448;6.260;2023-06-04T03:57:29;4.55;;;2.65;;
19024;SDS011;9645;51.448;6.260;2023-06-04T03:59:57;6.47;;;2.67;;
19024;SDS011;9645;51.448;6.260;2023-06-04T04:02:25;6.22;;;2.63;;
19024;SDS011;9645;51.448;6.260;2023-06-04T04:04:52;5.60;;;3.13;;
19024;SDS011;9645;51.448;6.260;2023-06-04T04:07:22;4.25;;;2.88;;
19024;SDS011;9645;51.448;6.260;2023-06-04T04:09:49;3.40;;;2.75;;
19024;SDS011;9645;51.448;6.260;2023-06-04T04:12:16;2.95;;;2.10;;
19024;SDS011;9645;51.448;6.260;2023-06-04T04:14:45;8.98;;;2.70;;
19024;SDS011;9645;51.448;6.260;2023-06-04T04:17:12;4.55;;;2.80;;
19024;SDS011;9645;51.448;6.260;2023-06-04T04:19:39;5.03;;;2.95;;
19024;SDS011;9645;51.448;6.260;2023-06-04T04:22:06;4.75;;;2.90;;
19024;SDS011;9645;51.448;6.260;2023-06-04T04:24:34;6.68;;;2.47;;
19024;SDS011;9645;51.448;6.260;2023-06-04T04:27:02;4.30;;;3.10;;
19024;SDS011;9645;51.448;6.260;2023-06-04T04:29:30;4.50;;;2.67;;
19024;SDS011;9645;51.448;6.260;2023-06-04T04:32:01;4.30;;;3.00;;
19024;SDS011;9645;51.448;6.260;2023-06-04T04:34:35;6.57;;;3.55;;
19024;SDS011;9645;51.448;6.260;2023-06-04T04:37:02;4.10;;;2.67;;
19024;SDS011;9645;51.448;6.260;2023-06-04T04:39:29;4.07;;;2.92;;
19024;SDS011;9645;51.448;6.260;2023-06-04T04:41:57;4.22;;;2.65;;
19024;SDS011;9645;51.448;6.260;2023-06-04T04:44:24;4.10;;;2.40;;
19024;SDS011;9645;51.448;6.260;2023-06-04T04:46:51;8.90;;;2.80;;
19024;SDS011;9645;51.448;6.260;2023-06-04T04:49:19;5.75;;;2.83;;
19024;SDS011;9645;51.448;6.260;2023-06-04T04:51:46;6.43;;;3.05;;
19024;SDS011;9645;51.448;6.260;2023-06-04T04:54:14;8.95;;;3.50;;
19024;SDS011;9645;51.448;6.260;2023-06-04T04:56:41;13.18;;;3.80;;
19024;SDS011;9645;51.448;6.260;2023-06-04T04:59:07;3.67;;;3.20;;
19024;SDS011;9645;51.448;6.260;2023-06-04T05:01:34;6.05;;;2.85;;
19024;SDS011;9645;51.448;6.260;2023-06-04T05:04:02;5.97;;;3.20;;
19024;SDS011;9645;51.448;6.260;2023-06-04T05:06:30;3.35;;;2.35;;
19024;SDS011;9645;51.448;6.260;2023-06-04T05:08:57;6.38;;;2.97;;
19024;SDS011;9645;51.448;6.260;2023-06-04T05:11:24;5.03;;;3.10;;
19024;SDS011;9645;51.448;6.260;2023-06-04T05:13:52;10.25;;;3.15;;
19024;SDS011;9645;51.448;6.260;2023-06-04T05:16:19;4.43;;;2.90;;
19024;SDS011;9645;51.448;6.260;2023-06-04T05:18:47;9.37;;;3.07;;
19024;SDS011;9645;51.448;6.260;2023-06-04T05:21:16;5.60;;;3.00;;
19024;SDS011;9645;51.448;6.260;2023-06-04T05:23:45;7.40;;;3.20;;
19024;SDS011;9645;51.448;6.260;2023-06-04T05:26:13;4.17;;;2.73;;
19024;SDS011;9645;51.448;6.260;2023-06-04T05:28:40;5.77;;;2.87;;
19024;SDS011;9645;51.448;6.260;2023-06-04T05:31:08;5.70;;;2.90;;
19024;SDS011;9645;51.448;6.260;2023-06-04T05:33:38;4.23;;;3.00;;
19024;SDS011;9645;51.448;6.260;2023-06-04T05:36:05;3.73;;;2.70;;
19024;SDS011;9645;51.448;6.260;2023-06-04T05:38:32;7.07;;;3.03;;
19024;SDS011;9645;51.448;6.260;2023-06-04T05:41:02;3.77;;;2.60;;
19024;SDS011;9645;51.448;6.260;2023-06-04T05:43:29;7.20;;;3.00;;
19024;SDS011;9645;51.448;6.260;2023-06-04T05:45:56;5.17;;;2.67;;
19024;SDS011;9645;51.448;6.260;2023-06-04T05:48:22;6.27;;;2.80;;
19024;SDS011;9645;51.448;6.260;2023-06-04T05:50:50;4.27;;;2.73;;
19024;SDS011;9645;51.448;6.260;2023-06-04T05:53:17;4.60;;;2.30;;
19024;SDS011;9645;51.448;6.260;2023-06-04T05:55:44;10.43;;;2.37;;
19024;SDS011;9645;51.448;6.260;2023-06-04T05:58:12;8.80;;;2.87;;
19024;SDS011;9645;51.448;6.260;2023-06-04T06:00:40;3.90;;;2.70;;
19024;SDS011;9645;51.448;6.260;2023-06-04T06:03:07;6.37;;;2.97;;
19024;SDS011;9645;51.448;6.260;2023-06-04T06:05:35;3.97;;;3.27;;
19024;SDS011;9645;51.448;6.260;2023-06-04T06:08:04;4.37;;;2.77;;
19024;SDS011;9645;51.448;6.260;2023-06-04T06:10:31;7.37;;;3.10;;
19024;SDS011;9645;51.448;6.260;2023-06-04T06:12:58;3.50;;;2.57;;
19024;SDS011;9645;51.448;6.260;2023-06-04T06:15:28;4.60;;;3.43;;
19024;SDS011;9645;51.448;6.260;2023-06-04T06:17:55;4.40;;;2.90;;
19024;SDS011;9645;51.448;6.260;2023-06-04T06:20:22;4.03;;;3.00;;
19024;SDS011;9645;51.448;6.260;2023-06-04T06:22:49;3.47;;;2.77;;
19024;SDS011;9645;51.448;6.260;2023-06-04T06:25:17;3.70;;;2.53;;
19024;SDS011;9645;51.448;6.260;2023-06-04T06:27:45;5.43;;;3.20;;
19024;SDS011;9645;51.448;6.260;2023-06-04T06:30:16;3.63;;;2.80;;
19024;SDS011;9645;51.448;6.260;2023-06-04T06:32:45;6.83;;;2.73;;
19024;SDS011;9645;51.448;6.260;2023-06-04T06:35:13;9.10;;;3.10;;
19024;SDS011;9645;51.448;6.260;2023-06-04T06:37:40;2.83;;;2.53;;
19024;SDS011;9645;51.448;6.260;2023-06-04T06:40:08;4.13;;;2.60;;
19024;SDS011;9645;51.448;6.260;2023-06-04T06:42:35;7.17;;;3.00;;
19024;SDS011;9645;51.448;6.260;2023-06-04T06:45:03;5.90;;;2.67;;
19024;SDS011;9645;51.448;6.260;2023-06-04T06:47:30;4.37;;;2.63;;
19024;SDS011;9645;51.448;6.260;2023-06-04T06:49:58;10.90;;;2.63;;
19024;SDS011;9645;51.448;6.260;2023-06-04T06:52:25;3.57;;;2.77;;
19024;SDS011;9645;51.448;6.260;2023-06-04T06:54:52;5.50;;;2.63;;
19024;SDS011;9645;51.448;6.260;2023-06-04T06:57:20;4.00;;;2.90;;
19024;SDS011;9645;51.448;6.260;2023-06-04T06:59:47;4.40;;;2.60;;
19024;SDS011;9645;51.448;6.260;2023-06-04T07:02:16;3.67;;;2.47;;
19024;SDS011;9645;51.448;6.260;2023-06-04T07:04:44;7.07;;;2.67;;
19024;SDS011;9645;51.448;6.260;2023-06-04T07:07:12;5.10;;;2.47;;
19024;SDS011;9645;51.448;6.260;2023-06-04T07:09:39;3.90;;;2.40;;
19024;SDS011;9645;51.448;6.260;2023-06-04T07:12:06;6.03;;;2.97;;
19024;SDS011;9645;51.448;6.260;2023-06-04T07:14:33;3.83;;;2.60;;
19024;SDS011;9645;51.448;6.260;2023-06-04T07:17:00;2.23;;;1.83;;
19024;SDS011;9645;51.448;6.260;2023-06-04T07:19:27;3.53;;;2.53;;
19024;SDS011;9645;51.448;6.260;2023-06-04T07:21:54;3.40;;;2.20;;
19024;SDS011;9645;51.448;6.260;2023-06-04T07:24:23;5.53;;;2.90;;
19024;SDS011;9645;51.448;6.260;2023-06-04T07:26:50;3.43;;;2.07;;
19024;SDS011;9645;51.448;6.260;2023-06-04T07:29:17;6.17;;;2.30;;
19024;SDS011;9645;51.448;6.260;2023-06-04T07:31:44;7.13;;;2.23;;
19024;SDS011;9645;51.448;6.260;2023-06-04T07:34:11;4.90;;;2.10;;
19024;SDS011;9645;51.448;6.260;2023-06-04T07:36:38;3.63;;;2.50;;
19024;SDS011;9645;51.448;6.260;2023-06-04T07:39:05;3.63;;;2.80;;
19024;SDS011;9645;51.448;6.260;2023-06-04T07:41:33;3.20;;;2.47;;
19024;SDS011;9645;51.448;6.260;2023-06-04T07:44:00;9.10;;;2.40;;
19024;SDS011;9645;51.448;6.260;2023-06-04T07:46:27;2.53;;;2.30;;
19024;SDS011;9645;51.448;6.260;2023-06-04T07:48:54;4.67;;;2.30;;
19024;SDS011;9645;51.448;6.260;2023-06-04T07:51:21;6.47;;;1.80;;
19024;SDS011;9645;51.448;6.260;2023-06-04T07:53:48;2.27;;;2.00;;
19024;SDS011;9645;51.448;6.260;2023-06-04T07:56:15;2.90;;;1.77;;
19024;SDS011;9645;51.448;6.260;2023-06-04T07:58:44;5.20;;;2.30;;
19024;SDS011;9645;51.448;6.260;2023-06-04T08:01:12;2.90;;;1.80;;
19024;SDS011;9645;51.448;6.260;2023-06-04T08:03:39;7.33;;;2.20;;
19024;SDS011;9645;51.448;6.260;2023-06-04T08:06:06;5.90;;;1.97;;
19024;SDS011;9645;51.448;6.260;2023-06-04T08:08:33;2.20;;;1.93;;
19024;SDS011;9645;51.448;6.260;2023-06-04T08:11:00;8.63;;;2.30;;
19024;SDS011;9645;51.448;6.260;2023-06-04T08:13:27;2.23;;;1.97;;
19024;SDS011;9645;51.448;6.260;2023-06-04T08:15:56;7.60;;;2.23;;
19024;SDS011;9645;51.448;6.260;2023-06-04T08:18:23;3.00;;;1.93;;
19024;SDS011;9645;51.448;6.260;2023-06-04T08:20:50;3.10;;;1.73;;
19024;SDS011;9645;51.448;6.260;2023-06-04T08:23:17;5.10;;;2.13;;
19024;SDS011;9645;51.448;6.260;2023-06-04T08:25:44;4.90;;;2.30;;
19024;SDS011;9645;51.448;6.260;2023-06-04T08:28:12;2.00;;;1.80;;
19024;SDS011;9645;51.448;6.260;2023-06-04T08:30:40;1.83;;;1.73;;
19024;SDS011;9645;51.448;6.260;2023-06-04T08:33:10;4.20;;;2.03;;
19024;SDS011;9645;51.448;6.260;2023-06-04T08:35:37;1.90;;;1.50;;
19024;SDS011;9645;51.448;6.260;2023-06-04T08:38:04;7.87;;;1.80;;
19024;SDS011;9645;51.448;6.260;2023-06-04T08:40:31;5.20;;;1.70;;
19024;SDS011;9645;51.448;6.260;2023-06-04T08:42:59;1.70;;;1.60;;
19024;SDS011;9645;51.448;6.260;2023-06-04T08:45:27;5.00;;;1.83;;
19024;SDS011;9645;51.448;6.260;2023-06-04T08:47:58;2.60;;;1.90;;
19024;SDS011;9645;51.448;6.260;2023-06-04T08:50:28;4.80;;;1.67;;
19024;SDS011;9645;51.448;6.260;2023-06-04T08:52:56;5.37;;;1.93;;
19024;SDS011;9645;51.448;6.260;2023-06-04T08:55:24;3.13;;;1.80;;
19024;SDS011;9645;51.448;6.260;2023-06-04T08:57:51;4.33;;;1.70;;
19024;SDS011;9645;51.448;6.260;2023-06-04T09:00:20;2.30;;;1.73;;
19024;SDS011;9645;51.448;6.260;2023-06-04T09:02:49;2.10;;;1.50;;
19024;SDS011;9645;51.448;6.260;2023-06-04T09:05:18;1.77;;;1.67;;
19024;SDS011;9645;51.448;6.260;2023-06-04T09:07:48;2.60;;;1.87;;
19024;SDS011;9645;51.448;6.260;2023-06-04T09:10:19;3.00;;;2.40;;
19024;SDS011;9645;51.448;6.260;2023-06-04T09:12:50;1.50;;;1.40;;
19024;SDS011;9645;51.448;6.260;2023-06-04T09:15:18;2.07;;;1.40;;
19024;SDS011;9645;51.448;6.260;2023-06-04T09:17:44;6.50;;;1.43;;
19024;SDS011;9645;51.448;6.260;2023-06-04T09:20:18;5.40;;;1.57;;
19024;SDS011;9645;51.448;6.260;2023-06-04T09:22:49;4.47;;;1.70;;
19024;SDS011;9645;51.448;6.260;2023-06-04T09:25:21;2.17;;;1.57;;
19024;SDS011;9645;51.448;6.260;2023-06-04T09:27:50;4.00;;;1.97;;
19024;SDS011;9645;51.448;6.260;2023-06-04T09:30:20;2.47;;;1.50;;
19024;SDS011;9645;51.448;6.260;2023-06-04T09:32:49;3.93;;;1.40;;
19024;SDS011;9645;51.448;6.260;2023-06-04T09:35:26;1.60;;;1.50;;
19024;SDS011;9645;51.448;6.260;2023-06-04T09:37:55;1.60;;;1.50;;
19024;SDS011;9645;51.448;6.260;2023-06-04T09:40:23;1.23;;;1.13;;
19024;SDS011;9645;51.448;6.260;2023-06-04T09:42:50;1.20;;;1.20;;
19024;SDS011;9645;51.448;6.260;2023-06-04T09:45:26;1.17;;;1.07;;
19024;SDS011;9645;51.448;6.260;2023-06-04T09:47:54;1.93;;;1.40;;
19024;SDS011;9645;51.448;6.260;2023-06-04T09:50:24;1.10;;;1.10;;
19024;SDS011;9645;51.448;6.260;2023-06-04T09:52:52;3.03;;;1.20;;
19024;SDS011;9645;51.448;6.260;2023-06-04T09:55:20;1.63;;;1.53;;
19024;SDS011;9645;51.448;6.260;2023-06-04T09:57:47;1.43;;;1.33;;
19024;SDS011;9645;51.448;6.260;2023-06-04T10:00:16;1.77;;;1.67;;
19024;SDS011;9645;51.448;6.260;2023-06-04T10:02:43;3.47;;;1.20;;
19024;SDS011;9645;51.448;6.260;2023-06-04T10:05:12;1.40;;;1.30;;
19024;SDS011;9645;51.448;6.260;2023-06-04T10:07:40;1.77;;;1.27;;
19024;SDS011;9645;51.448;6.260;2023-06-04T10:10:10;1.57;;;1.47;;
19024;SDS011;9645;51.448;6.260;2023-06-04T10:12:39;1.67;;;1.40;;
19024;SDS011;9645;51.448;6.260;2023-06-04T10:15:07;2.10;;;1.40;;
19024;SDS011;9645;51.448;6.260;2023-06-04T10:17:37;2.83;;;1.40;;
19024;SDS011;9645;51.448;6.260;2023-06-04T10:20:05;1.70;;;1.60;;
19024;SDS011;9645;51.448;6.260;2023-06-04T10:22:34;4.10;;;1.70;;
19024;SDS011;9645;51.448;6.260;2023-06-04T10:25:02;1.20;;;1.20;;
19024;SDS011;9645;51.448;6.260;2023-06-04T10:27:30;1.70;;;1.60;;
19024;SDS011;9645;51.448;6.260;2023-06-04T10:29:58;3.27;;;1.50;;
19024;SDS011;9645;51.448;6.260;2023-06-04T10:32:26;1.63;;;1.40;;
19024;SDS011;9645;51.448;6.260;2023-06-04T10:34:54;5.00;;;1.77;;
19024;SDS011;9645;51.448;6.260;2023-06-04T10:37:22;2.20;;;1.50;;
19024;SDS011;9645;51.448;6.260;2023-06-04T10:39:50;7.17;;;1.80;;
19024;SDS011;9645;51.448;6.260;2023-06-04T10:42:18;4.40;;;1.90;;
19024;SDS011;9645;51.448;6.260;2023-06-04T10:44:46;1.80;;;1.70;;
19024;SDS011;9645;51.448;6.260;2023-06-04T10:47:19;2.10;;;1.70;;
19024;SDS011;9645;51.448;6.260;2023-06-04T10:49:47;2.23;;;1.80;;
19024;SDS011;9645;51.448;6.260;2023-06-04T10:52:14;1.80;;;1.70;;
19024;SDS011;9645;51.448;6.260;2023-06-04T10:54:41;3.23;;;1.90;;
19024;SDS011;9645;51.448;6.260;2023-06-04T10:57:10;4.10;;;2.00;;
19024;SDS011;9645;51.448;6.260;2023-06-04T10:59:37;11.70;;;3.10;;
19024;SDS011;9645;51.448;6.260;2023-06-04T11:02:05;2.47;;;2.20;;
19024;SDS011;9645;51.448;6.260;2023-06-04T11:04:34;1.60;;;1.50;;
19024;SDS011;9645;51.448;6.260;2023-06-04T11:07:03;3.80;;;2.00;;
19024;SDS011;9645;51.448;6.260;2023-06-04T11:09:34;4.53;;;2.10;;
19024;SDS011;9645;51.448;6.260;2023-06-04T11:12:01;2.37;;;2.00;;
19024;SDS011;9645;51.448;6.260;2023-06-04T11:14:29;1.80;;;1.70;;
19024;SDS011;9645;51.448;6.260;2023-06-04T11:16:56;1.33;;;1.30;;
19024;SDS011;9645;51.448;6.260;2023-06-04T11:19:23;4.63;;;1.80;;
19024;SDS011;9645;51.448;6.260;2023-06-04T11:21:51;5.53;;;1.60;;
19024;SDS011;9645;51.448;6.260;2023-06-04T11:24:19;1.73;;;1.63;;
19024;SDS011;9645;51.448;6.260;2023-06-04T11:26:46;2.20;;;1.60;;
19024;SDS011;9645;51.448;6.260;2023-06-04T11:29:13;4.23;;;1.70;;
19024;SDS011;9645;51.448;6.260;2023-06-04T11:31:41;1.80;;;1.70;;
19024;SDS011;9645;51.448;6.260;2023-06-04T11:34:09;4.13;;;2.03;;
19024;SDS011;9645;51.448;6.260;2023-06-04T11:36:37;2.27;;;1.70;;
19024;SDS011;9645;51.448;6.260;2023-06-04T11:39:06;4.23;;;1.93;;
19024;SDS011;9645;51.448;6.260;2023-06-04T11:41:33;5.67;;;1.77;;
19024;SDS011;9645;51.448;6.260;2023-06-04T11:44:02;2.10;;;1.90;;
19024;SDS011;9645;51.448;6.260;2023-06-04T11:46:30;3.23;;;1.70;;
19024;SDS011;9645;51.448;6.260;2023-06-04T11:48:59;9.43;;;1.80;;
19024;SDS011;9645;51.448;6.260;2023-06-04T11:51:26;1.70;;;1.60;;
19024;SDS011;9645;51.448;6.260;2023-06-04T11:53:53;1.90;;;1.80;;
19024;SDS011;9645;51.448;6.260;2023-06-04T11:56:22;1.90;;;1.53;;
19024;SDS011;9645;51.448;6.260;2023-06-04T11:58:51;5.40;;;1.83;;
19024;SDS011;9645;51.448;6.260;2023-06-04T12:01:20;8.33;;;1.50;;
19024;SDS011;9645;51.448;6.260;2023-06-04T12:03:48;5.60;;;1.67;;
19024;SDS011;9645;51.448;6.260;2023-06-04T12:06:15;2.00;;;1.90;;
19024;SDS011;9645;51.448;6.260;2023-06-04T12:08:44;3.50;;;1.90;;
19024;SDS011;9645;51.448;6.260;2023-06-04T12:11:24;2.33;;;2.13;;
19024;SDS011;9645;51.448;6.260;2023-06-04T12:13:52;2.60;;;1.80;;
19024;SDS011;9645;51.448;6.260;2023-06-04T12:16:20;8.83;;;2.03;;
19024;SDS011;9645;51.448;6.260;2023-06-04T12:18:47;1.87;;;1.77;;
19024;SDS011;9645;51.448;6.260;2023-06-04T12:21:20;2.17;;;1.97;;
19024;SDS011;9645;51.448;6.260;2023-06-04T12:23:52;12.53;;;1.93;;
19024;SDS011;9645;51.448;6.260;2023-06-04T12:26:22;5.73;;;1.87;;
19024;SDS011;9645;51.448;6.260;2023-06-04T12:29:00;2.53;;;1.90;;
19024;SDS011;9645;51.448;6.260;2023-06-04T12:31:27;2.37;;;2.17;;
19024;SDS011;9645;51.448;6.260;2023-06-04T12:33:57;1.93;;;1.83;;
19024;SDS011;9645;51.448;6.260;2023-06-04T12:36:25;3.67;;;2.00;;
19024;SDS011;9645;51.448;6.260;2023-06-04T12:38:53;1.57;;;1.47;;
19024;SDS011;9645;51.448;6.260;2023-06-04T12:41:26;1.83;;;1.70;;
19024;SDS011;9645;51.448;6.260;2023-06-04T12:43:53;2.00;;;1.90;;
19024;SDS011;9645;51.448;6.260;2023-06-04T12:46:21;2.00;;;1.47;;
19024;SDS011;9645;51.448;6.260;2023-06-04T12:48:48;3.07;;;1.40;;
19024;SDS011;9645;51.448;6.260;2023-06-04T12:51:15;2.73;;;1.73;;
19024;SDS011;9645;51.448;6.260;2023-06-04T12:53:43;1.77;;;1.67;;
19024;SDS011;9645;51.448;6.260;2023-06-04T12:56:11;3.07;;;1.50;;
19024;SDS011;9645;51.448;6.260;2023-06-04T12:58:40;2.60;;;1.50;;
19024;SDS011;9645;51.448;6.260;2023-06-04T13:01:07;2.00;;;1.80;;
19024;SDS011;9645;51.448;6.260;2023-06-04T13:03:36;10.30;;;1.73;;
19024;SDS011;9645;51.448;6.260;2023-06-04T13:06:04;1.63;;;1.53;;
19024;SDS011;9645;51.448;6.260;2023-06-04T13:08:31;1.90;;;1.60;;
19024;SDS011;9645;51.448;6.260;2023-06-04T13:10:59;1.70;;;1.60;;
19024;SDS011;9645;51.448;6.260;2023-06-04T13:13:26;6.40;;;1.80;;
19024;SDS011;9645;51.448;6.260;2023-06-04T13:15:58;4.67;;;1.77;;
19024;SDS011;9645;51.448;6.260;2023-06-04T13:18:25;1.80;;;1.57;;
19024;SDS011;9645;51.448;6.260;2023-06-04T13:20:52;1.63;;;1.53;;
19024;SDS011;9645;51.448;6.260;2023-06-04T13:23:19;2.20;;;2.03;;
19024;SDS011;9645;51.448;6.260;2023-06-04T13:25:46;4.67;;;2.17;;
19024;SDS011;9645;51.448;6.260;2023-06-04T13:28:13;3.77;;;1.87;;
19024;SDS011;9645;51.448;6.260;2023-06-04T13:30:40;3.20;;;2.13;;
19024;SDS011;9645;51.448;6.260;2023-06-04T13:33:09;4.40;;;2.00;;
19024;SDS011;9645;51.448;6.260;2023-06-04T13:35:36;3.97;;;1.80;;
19024;SDS011;9645;51.448;6.260;2023-06-04T13:38:03;4.20;;;2.00;;
19024;SDS011;9645;51.448;6.260;2023-06-04T13:40:31;1.97;;;1.87;;
19024;SDS011;9645;51.448;6.260;2023-06-04T13:43:01;2.57;;;1.67;;
19024;SDS011;9645;51.448;6.260;2023-06-04T13:45:28;2.20;;;1.90;;
19024;SDS011;9645;51.448;6.260;2023-06-04T13:47:55;2.13;;;1.90;;
19024;SDS011;9645;51.448;6.260;2023-06-04T13:50:28;2.03;;;1.73;;
19024;SDS011;9645;51.448;6.260;2023-06-04T13:52:55;1.90;;;1.53;;
19024;SDS011;9645;51.448;6.260;2023-06-04T13:55:22;1.80;;;1.70;;
19024;SDS011;9645;51.448;6.260;2023-06-04T13:57:49;5.93;;;1.60;;
19024;SDS011;9645;51.448;6.260;2023-06-04T14:00:16;1.93;;;1.70;;
19024;SDS011;9645;51.448;6.260;2023-06-04T14:02:43;4.23;;;1.93;;
19024;SDS011;9645;51.448;6.260;2023-06-04T14:05:10;1.80;;;1.70;;
19024;SDS011;9645;51.448;6.260;2023-06-04T14:07:38;1.60;;;1.50;;
19024;SDS011;9645;51.448;6.260;2023-06-04T14:10:07;7.57;;;1.70;;
19024;SDS011;9645;51.448;6.260;2023-06-04T14:12:37;2.10;;;1.50;;
19024;SDS011;9645;51.448;6.260;2023-06-04T14:15:05;3.03;;;1.80;;
19024;SDS011;9645;51.448;6.260;2023-06-04T14:17:33;4.83;;;2.10;;
19024;SDS011;9645;51.448;6.260;2023-06-04T14:20:00;3.50;;;1.80;;
19024;SDS011;9645;51.448;6.260;2023-06-04T14:22:32;2.20;;;2.00;;
19024;SDS011;9645;51.448;6.260;2023-06-04T14:25:00;1.70;;;1.60;;
19024;SDS011;9645;51.448;6.260;2023-06-04T14:27:28;3.00;;;2.00;;
19024;SDS011;9645;51.448;6.260;2023-06-04T14:29:55;2.37;;;1.70;;
19024;SDS011;9645;51.448;6.260;2023-06-04T14:32:22;1.63;;;1.53;;
19024;SDS011;9645;51.448;6.260;2023-06-04T14:34:50;1.50;;;1.40;;
19024;SDS011;9645;51.448;6.260;2023-06-04T14:37:17;7.60;;;1.70;;
19024;SDS011;9645;51.448;6.260;2023-06-04T14:39:46;1.87;;;1.40;;
19024;SDS011;9645;51.448;6.260;2023-06-04T14:42:15;2.03;;;1.83;;
19024;SDS011;9645;51.448;6.260;2023-06-04T14:44:42;1.67;;;1.57;;
19024;SDS011;9645;51.448;6.260;2023-06-04T14:47:10;4.80;;;1.67;;
19024;SDS011;9645;51.448;6.260;2023-06-04T14:49:37;5.80;;;2.00;;
19024;SDS011;9645;51.448;6.260;2023-06-04T14:52:04;2.23;;;1.60;;
19024;SDS011;9645;51.448;6.260;2023-06-04T14:54:31;3.03;;;1.60;;
19024;SDS011;9645;51.448;6.260;2023-06-04T14:56:59;5.00;;;2.00;;
19024;SDS011;9645;51.448;6.260;2023-06-04T14:59:27;1.40;;;1.30;;
19024;SDS011;9645;51.448;6.260;2023-06-04T15:01:55;6.03;;;2.03;;
19024;SDS011;9645;51.448;6.260;2023-06-04T15:04:22;5.70;;;1.70;;
19024;SDS011;9645;51.448;6.260;2023-06-04T15:06:49;2.43;;;2.00;;